createdAt,value
2022-09-24T00:01:32.103Z,6.00
2022-09-24T00:04:00.674Z,6.27
2022-09-24T00:06:28.169Z,5.60
2022-09-24T00:08:55.785Z,6.10
2022-09-24T00:11:23.840Z,5.60
2022-09-24T00:13:51.565Z,7.77
2022-09-24T00:16:19.019Z,5.83
2022-09-24T00:18:45.729Z,5.73
2022-09-24T00:21:24.034Z,7.33
2022-09-24T00:23:55.154Z,6.70
2022-09-24T00:26:40.353Z,5.57
2022-09-24T00:29:08.109Z,8.27
2022-09-24T00:31:34.591Z,5.63
2022-09-24T00:34:01.597Z,5.60
2022-09-24T00:36:28.450Z,5.77
2022-09-24T00:38:56.256Z,5.77
2022-09-24T00:41:24.379Z,5.60
2022-09-24T00:43:50.985Z,6.03
2022-09-24T00:46:23.643Z,5.53
2022-09-24T00:48:51.733Z,5.23
2022-09-24T00:51:19.681Z,6.03
2022-09-24T00:53:47.551Z,6.20
2022-09-24T00:56:17.890Z,5.37
2022-09-24T00:58:49.860Z,6.50
2022-09-24T01:01:16.575Z,6.00
2022-09-24T01:03:43.121Z,8.10
2022-09-24T01:06:09.815Z,5.37
2022-09-24T01:08:36.467Z,5.57
2022-09-24T01:11:07.931Z,5.47
2022-09-24T01:13:43.911Z,5.57
2022-09-24T01:16:16.698Z,8.17
2022-09-24T01:18:49.121Z,5.37
2022-09-24T01:21:21.604Z,5.93
2022-09-24T01:23:56.514Z,9.60
2022-09-24T01:26:42.126Z,8.20
2022-09-24T01:29:27.220Z,6.43
2022-09-24T01:32:06.318Z,5.50
2022-09-24T01:34:37.185Z,5.30
2022-09-24T01:37:04.822Z,5.53
2022-09-24T01:39:32.922Z,5.10
2022-09-24T01:41:59.769Z,6.47
2022-09-24T01:44:26.386Z,5.67
2022-09-24T01:46:53.002Z,7.37
2022-09-24T01:49:19.488Z,6.13
2022-09-24T01:51:52.212Z,5.10
2022-09-24T01:54:20.972Z,4.80
2022-09-24T01:57:02.452Z,5.40
2022-09-24T01:59:32.445Z,9.03
2022-09-24T02:02:05.314Z,5.40
2022-09-24T02:04:34.092Z,7.20
2022-09-24T02:07:05.466Z,5.83
2022-09-24T02:09:36.561Z,5.87
2022-09-24T02:12:07.152Z,6.60
2022-09-24T02:14:36.619Z,5.30
2022-09-24T02:17:04.508Z,6.03
2022-09-24T02:19:31.881Z,5.20
2022-09-24T02:21:58.546Z,5.37
2022-09-24T02:24:30.424Z,5.00
2022-09-24T02:26:56.964Z,5.33
2022-09-24T02:29:23.402Z,5.07
2022-09-24T02:31:52.690Z,5.73
2022-09-24T02:34:21.209Z,5.20
2022-09-24T02:36:51.986Z,5.47
2022-09-24T02:39:18.747Z,5.00
2022-09-24T02:41:49.382Z,6.00
2022-09-24T02:44:16.568Z,4.87
2022-09-24T02:46:43.637Z,5.67
2022-09-24T02:49:10.816Z,6.93
2022-09-24T02:51:37.228Z,5.77
2022-09-24T02:54:04.332Z,9.20
2022-09-24T02:56:31.175Z,6.93
2022-09-24T02:58:57.795Z,5.43
2022-09-24T03:01:24.738Z,5.30
2022-09-24T03:03:51.791Z,5.47
2022-09-24T03:06:18.272Z,5.97
2022-09-24T03:08:44.980Z,5.10
2022-09-24T03:11:16.361Z,5.07
2022-09-24T03:13:44.911Z,5.53
2022-09-24T03:16:11.382Z,5.10
2022-09-24T03:18:37.870Z,5.07
2022-09-24T03:21:08.716Z,5.30
2022-09-24T03:23:35.565Z,5.10
2022-09-24T03:26:02.247Z,5.00
2022-09-24T03:28:29.014Z,4.80
2022-09-24T03:31:01.668Z,7.17
2022-09-24T03:33:28.230Z,5.30
2022-09-24T03:35:58.235Z,4.90
2022-09-24T03:38:24.897Z,5.07
2022-09-24T03:40:51.476Z,5.00
2022-09-24T03:43:18.043Z,5.20
2022-09-24T03:45:44.647Z,4.67
2022-09-24T03:48:11.217Z,6.43
2022-09-24T03:50:37.990Z,4.90
2022-09-24T03:53:04.918Z,5.10
2022-09-24T03:55:31.420Z,4.60
2022-09-24T03:57:57.837Z,5.30
2022-09-24T04:00:24.368Z,5.30
2022-09-24T04:02:51.181Z,5.13
2022-09-24T04:05:17.909Z,5.10
2022-09-24T04:07:44.767Z,4.90
2022-09-24T04:10:11.454Z,7.13
2022-09-24T04:12:37.966Z,5.53
2022-09-24T04:15:04.785Z,5.57
2022-09-24T04:17:31.454Z,6.40
2022-09-24T04:19:58.615Z,4.87
2022-09-24T04:22:26.128Z,4.93
2022-09-24T04:24:52.656Z,5.17
2022-09-24T04:27:19.138Z,5.40
2022-09-24T04:29:45.620Z,5.10
2022-09-24T04:32:12.032Z,4.90
2022-09-24T04:34:38.525Z,5.27
2022-09-24T04:37:05.875Z,5.10
2022-09-24T04:39:32.370Z,5.23
2022-09-24T04:41:58.903Z,5.57
2022-09-24T04:44:25.405Z,5.93
2022-09-24T04:46:52.083Z,5.53
2022-09-24T04:49:18.557Z,7.63
2022-09-24T04:51:45.135Z,5.10
2022-09-24T04:54:11.605Z,5.67
2022-09-24T04:56:38.042Z,5.30
2022-09-24T04:59:04.530Z,7.00
2022-09-24T05:01:31.139Z,4.97
2022-09-24T05:03:57.663Z,5.03
2022-09-24T05:06:24.048Z,9.17
2022-09-24T05:08:50.468Z,5.45
2022-09-24T05:11:16.954Z,4.70
2022-09-24T05:13:43.412Z,5.17
2022-09-24T05:16:09.876Z,7.37
2022-09-24T05:18:37.128Z,6.83
2022-09-24T05:21:03.628Z,5.60
2022-09-24T05:23:30.076Z,5.13
2022-09-24T05:26:15.392Z,4.60
2022-09-24T05:28:42.846Z,5.93
2022-09-24T05:31:10.737Z,7.57
2022-09-24T05:33:37.804Z,5.20
2022-09-24T05:36:04.657Z,6.33
2022-09-24T05:38:32.918Z,6.57
2022-09-24T05:40:59.408Z,5.53
2022-09-24T05:43:27.798Z,5.33
2022-09-24T05:45:54.684Z,4.93
2022-09-24T05:48:24.264Z,5.47
2022-09-24T05:50:55.202Z,5.10
2022-09-24T05:53:23.104Z,5.40
2022-09-24T05:55:49.583Z,5.10
2022-09-24T05:58:15.966Z,5.77
2022-09-24T06:00:42.502Z,5.63
2022-09-24T06:03:13.718Z,5.30
2022-09-24T06:05:43.863Z,5.90
2022-09-24T06:08:10.300Z,5.07
2022-09-24T06:10:36.769Z,5.60
2022-09-24T06:13:04.016Z,5.70
2022-09-24T06:15:31.048Z,5.27
2022-09-24T06:17:57.524Z,5.30
2022-09-24T06:20:24.079Z,5.00
2022-09-24T06:22:50.606Z,5.20
2022-09-24T06:25:17.073Z,5.33
2022-09-24T06:27:43.487Z,7.03
2022-09-24T06:30:10.115Z,5.30
2022-09-24T06:32:36.538Z,6.97
2022-09-24T06:35:03.292Z,5.57
2022-09-24T06:37:29.704Z,5.00
2022-09-24T06:39:56.156Z,5.47
2022-09-24T06:42:22.753Z,4.90
2022-09-24T06:44:50.918Z,8.53
2022-09-24T06:47:17.364Z,5.50
2022-09-24T06:49:43.786Z,6.83
2022-09-24T06:52:11.433Z,8.57
2022-09-24T06:54:38.764Z,7.93
2022-09-24T06:57:06.263Z,5.43
2022-09-24T06:59:32.703Z,5.83
2022-09-24T07:01:59.396Z,5.23
2022-09-24T07:04:25.858Z,4.83
2022-09-24T07:07:11.056Z,7.07
2022-09-24T07:09:40.751Z,5.07
2022-09-24T07:12:08.861Z,4.80
2022-09-24T07:14:35.346Z,7.70
2022-09-24T07:17:01.746Z,6.30
2022-09-24T07:19:28.225Z,5.33
2022-09-24T07:21:54.621Z,7.63
2022-09-24T07:24:21.104Z,6.53
2022-09-24T07:26:47.564Z,5.00
2022-09-24T07:29:13.973Z,6.17
2022-09-24T07:31:40.453Z,5.17
2022-09-24T07:34:08.045Z,4.57
2022-09-24T07:36:34.689Z,5.40
2022-09-24T07:39:01.403Z,4.60
2022-09-24T07:41:28.034Z,4.57
2022-09-24T07:43:55.715Z,4.77
2022-09-24T07:46:22.403Z,5.03
2022-09-24T07:48:49.199Z,4.67
2022-09-24T07:51:16.286Z,4.73
2022-09-24T07:53:42.790Z,5.00
2022-09-24T07:56:09.247Z,4.87
2022-09-24T07:58:35.718Z,5.47
2022-09-24T08:01:02.235Z,4.70
2022-09-24T08:03:28.755Z,4.70
2022-09-24T08:05:58.627Z,4.53
2022-09-24T08:08:26.041Z,4.57
2022-09-24T08:10:52.440Z,4.60
2022-09-24T08:13:21.619Z,5.23
2022-09-24T08:15:56.131Z,4.67
2022-09-24T08:18:22.614Z,4.40
2022-09-24T08:20:49.067Z,4.63
2022-09-24T08:23:16.113Z,4.83
2022-09-24T08:25:42.621Z,5.77
2022-09-24T08:28:11.298Z,4.83
2022-09-24T08:30:39.771Z,4.60
2022-09-24T08:33:09.348Z,4.70
2022-09-24T08:35:35.827Z,4.53
2022-09-24T08:38:03.504Z,4.00
2022-09-24T08:40:31.603Z,4.37
2022-09-24T08:43:13.310Z,4.20
2022-09-24T08:46:05.081Z,4.60
2022-09-24T08:48:34.432Z,5.10
2022-09-24T08:51:03.375Z,4.57
2022-09-24T08:53:38.846Z,4.37
2022-09-24T08:56:06.301Z,4.27
2022-09-24T08:58:44.333Z,4.13
2022-09-24T09:01:11.292Z,4.10
2022-09-24T09:03:50.913Z,4.33
2022-09-24T09:06:17.385Z,4.17
2022-09-24T09:09:06.180Z,4.13
2022-09-24T09:11:34.204Z,4.10
2022-09-24T09:14:11.119Z,3.83
2022-09-24T09:16:44.321Z,3.97
2022-09-24T09:19:13.248Z,4.67
2022-09-24T09:21:43.365Z,4.33
2022-09-24T09:24:21.094Z,4.80
2022-09-24T09:26:49.329Z,4.00
2022-09-24T09:29:16.145Z,4.93
2022-09-24T09:31:58.582Z,3.60
2022-09-24T09:34:33.787Z,4.63
2022-09-24T09:37:06.108Z,3.33
2022-09-24T09:39:41.629Z,3.80
2022-09-24T09:42:14.587Z,3.90
2022-09-24T09:44:42.111Z,4.17
2022-09-24T09:47:11.537Z,4.73
2022-09-24T09:49:39.106Z,4.80
2022-09-24T09:52:12.999Z,3.77
2022-09-24T09:54:39.934Z,3.50
2022-09-24T09:57:06.993Z,4.57
2022-09-24T09:59:35.571Z,3.17
2022-09-24T10:02:02.138Z,3.90
2022-09-24T10:04:32.400Z,4.30
2022-09-24T10:07:06.186Z,3.63
2022-09-24T10:09:32.806Z,3.70
2022-09-24T10:12:14.716Z,4.47
2022-09-24T10:14:41.466Z,3.27
2022-09-24T10:17:12.659Z,3.20
2022-09-24T10:19:39.958Z,3.27
2022-09-24T10:22:08.300Z,3.20
2022-09-24T10:24:35.824Z,3.90
2022-09-24T10:27:10.166Z,3.30
2022-09-24T10:29:55.233Z,4.00
2022-09-24T10:32:25.722Z,4.37
2022-09-24T10:35:18.605Z,2.53
2022-09-24T10:37:52.792Z,2.80
2022-09-24T10:40:23.479Z,2.70
2022-09-24T10:42:57.258Z,3.03
2022-09-24T10:45:25.917Z,2.77
2022-09-24T10:47:59.846Z,2.60
2022-09-24T10:50:29.370Z,3.57
2022-09-24T10:53:12.252Z,4.03
2022-09-24T10:55:46.121Z,2.90
2022-09-24T10:58:21.017Z,3.70
2022-09-24T11:00:54.252Z,2.90
2022-09-24T11:03:43.101Z,3.40
2022-09-24T11:06:28.333Z,2.70
2022-09-24T11:08:59.690Z,3.07
2022-09-24T11:11:26.143Z,3.10
2022-09-24T11:14:11.036Z,3.00
2022-09-24T11:16:40.292Z,2.70
2022-09-24T11:19:25.800Z,2.80
2022-09-24T11:22:12.560Z,2.80
2022-09-24T11:24:42.033Z,2.87
2022-09-24T11:27:11.517Z,3.10
2022-09-24T11:29:54.835Z,2.73
2022-09-24T11:32:27.581Z,2.80
2022-09-24T11:35:12.986Z,4.00
2022-09-24T11:37:51.101Z,3.67
2022-09-24T11:40:17.615Z,2.80
2022-09-24T11:42:54.771Z,3.07
2022-09-24T11:45:31.066Z,2.60
2022-09-24T11:47:57.513Z,2.93
2022-09-24T11:50:26.682Z,3.03
2022-09-24T11:52:56.383Z,2.63
2022-09-24T11:55:32.624Z,3.13
2022-09-24T11:58:19.325Z,2.80
2022-09-24T12:01:04.451Z,3.10
2022-09-24T12:03:42.614Z,2.70
2022-09-24T12:06:17.184Z,2.57
2022-09-24T12:08:51.199Z,3.10
2022-09-24T12:11:28.234Z,3.63
2022-09-24T12:14:13.624Z,3.07
2022-09-24T12:16:41.262Z,3.17
2022-09-24T12:19:28.254Z,3.07
2022-09-24T12:21:56.339Z,2.97
2022-09-24T12:24:42.999Z,2.63
2022-09-24T12:27:14.688Z,3.67
2022-09-24T12:30:18.771Z,2.93
2022-09-24T12:33:00.562Z,2.93
2022-09-24T12:35:33.427Z,4.73
2022-09-24T12:38:12.669Z,2.97
2022-09-24T12:40:39.115Z,2.20
2022-09-24T12:43:10.868Z,2.90
2022-09-24T12:45:37.345Z,2.83
2022-09-24T12:48:03.902Z,3.50
2022-09-24T12:50:32.415Z,3.73
2022-09-24T12:52:59.150Z,2.63
2022-09-24T12:55:25.660Z,2.70
2022-09-24T12:58:04.195Z,3.00
2022-09-24T13:00:33.634Z,2.63
2022-09-24T13:03:00.652Z,2.33
2022-09-24T13:05:28.730Z,4.10
2022-09-24T13:07:57.643Z,2.50
2022-09-24T13:10:25.623Z,2.93
2022-09-24T13:12:52.448Z,3.47
2022-09-24T13:15:28.545Z,2.40
2022-09-24T13:18:04.565Z,2.40
2022-09-24T13:20:31.658Z,2.90
2022-09-24T13:23:12.425Z,2.90
2022-09-24T13:25:38.967Z,2.80
2022-09-24T13:28:25.211Z,2.60
2022-09-24T13:30:55.351Z,2.87
2022-09-24T13:33:27.974Z,3.93
2022-09-24T13:35:57.528Z,3.47
2022-09-24T13:38:39.013Z,4.30
2022-09-24T13:41:14.732Z,4.83
2022-09-24T13:43:47.188Z,3.53
2022-09-24T13:46:15.636Z,3.17
2022-09-24T13:48:44.974Z,3.37
2022-09-24T13:51:13.179Z,4.20
2022-09-24T13:53:47.543Z,4.03
2022-09-24T13:56:15.406Z,3.40
2022-09-24T13:58:43.155Z,4.57
2022-09-24T14:01:20.375Z,2.77
2022-09-24T14:04:01.023Z,3.17
2022-09-24T14:06:38.118Z,2.87
2022-09-24T14:09:23.053Z,5.50
2022-09-24T14:11:50.763Z,2.80
2022-09-24T14:14:18.620Z,3.53
2022-09-24T14:16:45.064Z,5.27
2022-09-24T14:19:15.438Z,3.43
2022-09-24T14:22:02.156Z,3.00
2022-09-24T14:24:39.921Z,2.90
2022-09-24T14:27:06.347Z,3.70
2022-09-24T14:29:32.771Z,2.80
2022-09-24T14:32:00.613Z,2.60
2022-09-24T14:34:40.868Z,2.80
2022-09-24T14:37:28.016Z,2.93
2022-09-24T14:39:58.946Z,4.33
2022-09-24T14:42:27.580Z,2.70
2022-09-24T14:44:54.739Z,3.00
2022-09-24T14:47:26.449Z,5.87
2022-09-24T14:49:53.267Z,3.77
2022-09-24T14:52:31.163Z,4.47
2022-09-24T14:55:17.332Z,2.90
2022-09-24T14:57:48.625Z,3.70
2022-09-24T15:00:24.417Z,3.87
2022-09-24T15:02:58.273Z,4.03
2022-09-24T15:05:26.071Z,3.30
2022-09-24T15:07:54.379Z,3.40
2022-09-24T15:10:22.062Z,3.80
2022-09-24T15:12:49.606Z,3.20
2022-09-24T15:15:19.570Z,3.50
2022-09-24T15:17:47.432Z,3.30
2022-09-24T15:20:14.381Z,3.27
2022-09-24T15:22:40.879Z,3.30
2022-09-24T15:25:07.564Z,3.27
2022-09-24T15:27:37.044Z,3.40
2022-09-24T15:30:04.847Z,3.30
2022-09-24T15:32:32.599Z,4.03
2022-09-24T15:34:59.167Z,3.97
2022-09-24T15:37:27.351Z,4.17
2022-09-24T15:39:59.067Z,3.87
2022-09-24T15:42:26.512Z,5.17
2022-09-24T15:44:54.693Z,4.63
2022-09-24T15:47:21.220Z,4.33
2022-09-24T15:49:47.656Z,5.20
2022-09-24T15:52:15.715Z,7.50
2022-09-24T15:54:42.193Z,8.27
2022-09-24T15:57:12.184Z,10.17
2022-09-24T15:59:38.808Z,13.93
2022-09-24T16:02:11.180Z,11.00
2022-09-24T16:04:37.703Z,10.23
2022-09-24T16:07:04.460Z,10.53
2022-09-24T16:09:30.932Z,10.70
2022-09-24T16:11:57.671Z,9.77
2022-09-24T16:14:24.096Z,8.93
2022-09-24T16:16:50.539Z,7.73
2022-09-24T16:19:16.973Z,6.90
2022-09-24T16:21:43.402Z,6.57
2022-09-24T16:24:09.896Z,6.37
2022-09-24T16:26:37.357Z,5.53
2022-09-24T16:29:04.525Z,5.17
2022-09-24T16:31:31.012Z,5.10
2022-09-24T16:33:57.606Z,5.50
2022-09-24T16:36:24.013Z,5.10
2022-09-24T16:38:50.677Z,5.20
2022-09-24T16:41:17.203Z,5.47
2022-09-24T16:43:43.670Z,5.00
2022-09-24T16:46:10.236Z,4.83
2022-09-24T16:48:37.044Z,4.93
2022-09-24T16:51:10.466Z,4.80
2022-09-24T16:53:37.530Z,5.10
2022-09-24T16:56:04.912Z,5.53
2022-09-24T16:58:32.826Z,6.00
2022-09-24T17:00:59.375Z,6.03
2022-09-24T17:03:25.857Z,6.20
2022-09-24T17:05:52.294Z,5.77
2022-09-24T17:08:18.770Z,5.80
2022-09-24T17:10:53.815Z,6.17
2022-09-24T17:13:23.221Z,6.53
2022-09-24T17:15:49.748Z,7.80
2022-09-24T17:18:16.249Z,8.07
2022-09-24T17:20:42.704Z,8.50
2022-09-24T17:23:09.103Z,8.83
2022-09-24T17:25:35.538Z,9.23
2022-09-24T17:28:02.298Z,10.27
2022-09-24T17:30:28.724Z,9.90
2022-09-24T17:32:55.214Z,11.57
2022-09-24T17:35:22.782Z,10.10
2022-09-24T17:37:49.241Z,11.87
2022-09-24T17:40:21.547Z,11.13
2022-09-24T17:42:50.484Z,11.67
2022-09-24T17:45:16.936Z,11.23
2022-09-24T17:47:58.814Z,10.90
2022-09-24T17:50:25.318Z,10.67
2022-09-24T17:52:51.764Z,9.37
2022-09-24T17:55:18.242Z,9.73
2022-09-24T17:57:44.738Z,10.40
2022-09-24T18:00:11.329Z,10.00
2022-09-24T18:02:38.097Z,9.40
2022-09-24T18:05:04.709Z,10.73
2022-09-24T18:07:31.220Z,10.60
2022-09-24T18:09:57.661Z,10.70
2022-09-24T18:12:24.092Z,12.30
2022-09-24T18:14:50.524Z,13.00
2022-09-24T18:17:16.989Z,12.90
2022-09-24T18:19:43.369Z,18.07
2022-09-24T18:22:11.311Z,19.80
2022-09-24T18:24:37.730Z,17.53
2022-09-24T18:27:05.284Z,16.93
2022-09-24T18:29:31.694Z,15.47
2022-09-24T18:31:58.118Z,14.40
2022-09-24T18:34:25.236Z,12.90
2022-09-24T18:36:51.677Z,13.40
2022-09-24T18:39:24.819Z,13.90
2022-09-24T18:41:52.082Z,12.77
2022-09-24T18:44:19.710Z,12.93
2022-09-24T18:46:46.692Z,11.73
2022-09-24T18:49:13.231Z,13.63
2022-09-24T18:51:39.713Z,13.70
2022-09-24T18:54:15.669Z,13.87
2022-09-24T18:56:43.520Z,16.17
2022-09-24T18:59:11.822Z,14.73
2022-09-24T19:01:39.530Z,14.50
2022-09-24T19:04:07.925Z,12.70
2022-09-24T19:06:35.379Z,12.63
2022-09-24T19:09:02.020Z,12.40
2022-09-24T19:11:30.350Z,12.90
2022-09-24T19:13:57.794Z,13.43
2022-09-24T19:16:24.551Z,12.77
2022-09-24T19:18:52.086Z,12.33
2022-09-24T19:21:19.090Z,12.37
2022-09-24T19:23:49.442Z,11.70
2022-09-24T19:26:20.373Z,17.63
2022-09-24T19:28:47.720Z,14.10
2022-09-24T19:31:15.042Z,12.73
2022-09-24T19:33:41.968Z,14.53
2022-09-24T19:36:08.847Z,13.37
2022-09-24T19:38:35.675Z,12.10
2022-09-24T19:41:06.899Z,12.10
2022-09-24T19:43:34.204Z,11.80
2022-09-24T19:46:02.306Z,12.30
2022-09-24T19:48:29.880Z,11.60
2022-09-24T19:51:00.861Z,12.27
2022-09-24T19:53:27.751Z,11.87
2022-09-24T19:55:54.283Z,12.97
2022-09-24T20:01:52.398Z,13.43
2022-09-24T20:04:20.463Z,14.73
2022-09-24T20:06:47.070Z,13.60
2022-09-24T20:09:13.468Z,13.77
2022-09-24T20:11:39.880Z,13.57
2022-09-24T20:14:08.883Z,14.07
2022-09-24T20:16:36.001Z,13.40
2022-09-24T20:19:02.928Z,15.63
2022-09-24T20:21:32.088Z,18.43
2022-09-24T20:23:59.205Z,18.73
2022-09-24T20:26:44.695Z,23.70
2022-09-24T20:29:12.309Z,22.50
2022-09-24T20:31:42.545Z,23.23
2022-09-24T20:34:09.331Z,20.10
2022-09-24T20:36:36.419Z,18.50
2022-09-24T20:39:03.991Z,19.20
2022-09-24T20:41:30.568Z,20.37
2022-09-24T20:43:57.028Z,25.70
2022-09-24T20:46:24.853Z,27.30
2022-09-24T20:48:52.072Z,29.17
2022-09-24T20:51:19.625Z,28.87
2022-09-24T20:53:46.449Z,26.87
2022-09-24T20:56:13.675Z,25.10
2022-09-24T20:58:40.510Z,22.87
2022-09-24T21:01:07.809Z,26.70
2022-09-24T21:03:49.661Z,24.10
2022-09-24T21:06:16.776Z,21.87
2022-09-24T21:08:44.576Z,18.40
2022-09-24T21:11:12.093Z,18.03
2022-09-24T21:13:45.664Z,17.60
2022-09-24T21:16:12.351Z,16.20
2022-09-24T21:18:40.709Z,17.67
2022-09-24T21:21:08.967Z,16.33
2022-09-24T21:23:37.997Z,14.00
2022-09-24T21:26:14.907Z,12.83
2022-09-24T21:28:43.265Z,12.07
2022-09-24T21:31:09.828Z,12.23
2022-09-24T21:33:36.727Z,11.27
2022-09-24T21:36:04.266Z,11.20
2022-09-24T21:38:30.924Z,11.23
2022-09-24T21:40:57.826Z,10.73
2022-09-24T21:43:28.646Z,11.43
2022-09-24T21:46:01.897Z,10.67
2022-09-24T21:48:28.403Z,10.23
2022-09-24T21:51:01.197Z,9.73
2022-09-24T21:53:27.704Z,10.80
2022-09-24T21:55:54.150Z,9.40
2022-09-24T21:58:20.568Z,10.83
2022-09-24T22:00:47.079Z,11.20
2022-09-24T22:03:14.360Z,11.73
2022-09-24T22:05:43.004Z,11.43
2022-09-24T22:08:11.895Z,11.20
2022-09-24T22:10:42.458Z,11.53
2022-09-24T22:13:09.485Z,11.73
2022-09-24T22:15:36.110Z,12.63
2022-09-24T22:18:02.601Z,12.73
2022-09-24T22:20:29.476Z,12.77
2022-09-24T22:22:56.107Z,12.47
2022-09-24T22:25:22.867Z,12.47
2022-09-24T22:27:49.446Z,11.20
2022-09-24T22:30:15.983Z,12.60
2022-09-24T22:32:42.402Z,11.90
2022-09-24T22:35:28.045Z,12.60
2022-09-24T22:37:55.086Z,11.20
2022-09-24T22:40:21.673Z,11.07
2022-09-24T22:42:48.105Z,12.27
2022-09-24T22:45:14.741Z,12.20
2022-09-24T22:47:41.165Z,11.17
2022-09-24T22:50:08.087Z,11.60
2022-09-24T22:52:34.531Z,10.90
2022-09-24T22:55:00.932Z,10.47
2022-09-24T22:57:27.408Z,11.73
2022-09-24T22:59:53.783Z,10.10
2022-09-24T23:02:22.140Z,10.23
2022-09-24T23:04:48.712Z,10.20
2022-09-24T23:07:16.605Z,10.53
2022-09-24T23:09:43.057Z,9.87
2022-09-24T23:12:09.466Z,10.27
2022-09-24T23:14:36.156Z,10.33
2022-09-24T23:17:02.658Z,10.67
2022-09-24T23:19:48.618Z,10.57
2022-09-24T23:22:18.404Z,11.65
2022-09-24T23:24:46.367Z,10.73
2022-09-24T23:27:13.748Z,10.47
2022-09-24T23:29:40.220Z,10.13
2022-09-24T23:32:06.698Z,10.10
2022-09-24T23:34:33.159Z,9.80
2022-09-24T23:36:59.707Z,9.50
2022-09-24T23:39:26.208Z,9.70
2022-09-24T23:41:52.668Z,9.73
2022-09-24T23:44:19.471Z,10.10
2022-09-24T23:46:45.922Z,10.97
2022-09-24T23:49:12.322Z,10.43
2022-09-24T23:51:38.830Z,9.73
2022-09-24T23:54:05.519Z,9.90
2022-09-24T23:56:31.954Z,9.80
2022-09-24T23:58:58.440Z,9.80
